sensor_id;sensor_type;location;lat;lon;timestamp;P1;durP1;ratioP1;P2;durP2;ratioP2
5491;SDS011;2768;53.540;10.224;2024-03-08T00:05:43;14.40;;;11.60;;
5491;SDS011;2768;53.540;10.224;2024-03-08T00:11:37;13.40;;;10.77;;
5491;SDS011;2768;53.540;10.224;2024-03-08T00:17:31;17.30;;;11.37;;
5491;SDS011;2768;53.540;10.224;2024-03-08T00:23:26;15.27;;;12.43;;
5491;SDS011;2768;53.540;10.224;2024-03-08T00:29:20;15.70;;;12.13;;
5491;SDS011;2768;53.540;10.224;2024-03-08T00:35:14;15.13;;;11.70;;
5491;SDS011;2768;53.540;10.224;2024-03-08T00:41:08;17.90;;;12.43;;
5491;SDS011;2768;53.540;10.224;2024-03-08T00:47:02;16.20;;;12.53;;
5491;SDS011;2768;53.540;10.224;2024-03-08T00:52:56;18.33;;;13.17;;
5491;SDS011;2768;53.540;10.224;2024-03-08T00:58:51;13.90;;;11.63;;
5491;SDS011;2768;53.540;10.224;2024-03-08T01:04:45;15.23;;;12.13;;
5491;SDS011;2768;53.540;10.224;2024-03-08T01:10:39;17.90;;;12.70;;
5491;SDS011;2768;53.540;10.224;2024-03-08T01:16:34;15.70;;;12.60;;
5491;SDS011;2768;53.540;10.224;2024-03-08T01:22:28;16.70;;;12.30;;
5491;SDS011;2768;53.540;10.224;2024-03-08T01:28:22;16.80;;;12.40;;
5491;SDS011;2768;53.540;10.224;2024-03-08T01:34:17;16.20;;;12.30;;
5491;SDS011;2768;53.540;10.224;2024-03-08T01:40:11;15.90;;;12.40;;
5491;SDS011;2768;53.540;10.224;2024-03-08T01:46:04;16.17;;;12.77;;
5491;SDS011;2768;53.540;10.224;2024-03-08T01:52:02;17.23;;;11.73;;
5491;SDS011;2768;53.540;10.224;2024-03-08T01:57:56;15.93;;;12.50;;
5491;SDS011;2768;53.540;10.224;2024-03-08T02:03:51;16.20;;;12.90;;
5491;SDS011;2768;53.540;10.224;2024-03-08T02:09:46;16.00;;;11.87;;
5491;SDS011;2768;53.540;10.224;2024-03-08T02:15:50;17.07;;;12.57;;
5491;SDS011;2768;53.540;10.224;2024-03-08T02:21:46;14.37;;;11.00;;
5491;SDS011;2768;53.540;10.224;2024-03-08T02:27:40;18.07;;;12.50;;
5491;SDS011;2768;53.540;10.224;2024-03-08T02:33:33;16.07;;;12.20;;
5491;SDS011;2768;53.540;10.224;2024-03-08T02:39:28;21.23;;;12.97;;
5491;SDS011;2768;53.540;10.224;2024-03-08T02:45:24;17.23;;;12.63;;
5491;SDS011;2768;53.540;10.224;2024-03-08T02:51:17;16.53;;;12.60;;
5491;SDS011;2768;53.540;10.224;2024-03-08T02:57:42;16.57;;;12.70;;
5491;SDS011;2768;53.540;10.224;2024-03-08T03:03:42;17.50;;;12.47;;
5491;SDS011;2768;53.540;10.224;2024-03-08T03:09:35;16.87;;;12.50;;
5491;SDS011;2768;53.540;10.224;2024-03-08T03:15:31;21.90;;;12.60;;
5491;SDS011;2768;53.540;10.224;2024-03-08T03:21:27;17.73;;;13.17;;
5491;SDS011;2768;53.540;10.224;2024-03-08T03:27:23;17.13;;;12.77;;
5491;SDS011;2768;53.540;10.224;2024-03-08T03:33:18;16.43;;;13.03;;
5491;SDS011;2768;53.540;10.224;2024-03-08T03:39:13;15.53;;;12.43;;
5491;SDS011;2768;53.540;10.224;2024-03-08T03:45:08;14.90;;;13.10;;
5491;SDS011;2768;53.540;10.224;2024-03-08T03:51:04;18.40;;;13.00;;
5491;SDS011;2768;53.540;10.224;2024-03-08T03:56:57;18.00;;;13.17;;
5491;SDS011;2768;53.540;10.224;2024-03-08T04:02:52;18.17;;;13.10;;
5491;SDS011;2768;53.540;10.224;2024-03-08T04:08:48;17.17;;;13.10;;
5491;SDS011;2768;53.540;10.224;2024-03-08T04:14:41;18.70;;;12.47;;
5491;SDS011;2768;53.540;10.224;2024-03-08T04:20:36;17.10;;;12.10;;
5491;SDS011;2768;53.540;10.224;2024-03-08T04:26:32;17.10;;;12.27;;
5491;SDS011;2768;53.540;10.224;2024-03-08T04:32:26;16.50;;;13.40;;
5491;SDS011;2768;53.540;10.224;2024-03-08T04:38:21;19.90;;;12.77;;
5491;SDS011;2768;53.540;10.224;2024-03-08T04:44:17;19.60;;;11.67;;
5491;SDS011;2768;53.540;10.224;2024-03-08T04:50:10;18.60;;;13.03;;
5491;SDS011;2768;53.540;10.224;2024-03-08T04:56:04;16.00;;;12.50;;
5491;SDS011;2768;53.540;10.224;2024-03-08T05:02:00;16.83;;;12.70;;
5491;SDS011;2768;53.540;10.224;2024-03-08T05:07:54;16.77;;;12.80;;
5491;SDS011;2768;53.540;10.224;2024-03-08T05:13:47;19.67;;;12.63;;
5491;SDS011;2768;53.540;10.224;2024-03-08T05:19:42;21.03;;;12.50;;
5491;SDS011;2768;53.540;10.224;2024-03-08T05:25:35;16.70;;;12.53;;
5491;SDS011;2768;53.540;10.224;2024-03-08T05:31:30;19.50;;;12.93;;
5491;SDS011;2768;53.540;10.224;2024-03-08T05:37:30;20.07;;;13.73;;
5491;SDS011;2768;53.540;10.224;2024-03-08T05:43:23;18.60;;;12.70;;
5491;SDS011;2768;53.540;10.224;2024-03-08T05:49:17;19.03;;;13.10;;
5491;SDS011;2768;53.540;10.224;2024-03-08T05:55:12;17.23;;;12.97;;
5491;SDS011;2768;53.540;10.224;2024-03-08T06:01:05;17.53;;;12.90;;
5491;SDS011;2768;53.540;10.224;2024-03-08T06:06:59;20.67;;;13.40;;
5491;SDS011;2768;53.540;10.224;2024-03-08T06:12:56;18.20;;;12.80;;
5491;SDS011;2768;53.540;10.224;2024-03-08T06:18:49;18.97;;;13.60;;
5491;SDS011;2768;53.540;10.224;2024-03-08T06:24:43;17.07;;;12.60;;
5491;SDS011;2768;53.540;10.224;2024-03-08T06:30:38;19.50;;;14.60;;
5491;SDS011;2768;53.540;10.224;2024-03-08T06:36:34;18.13;;;13.13;;
5491;SDS011;2768;53.540;10.224;2024-03-08T06:42:29;18.67;;;13.67;;
5491;SDS011;2768;53.540;10.224;2024-03-08T06:48:27;22.07;;;15.00;;
5491;SDS011;2768;53.540;10.224;2024-03-08T06:54:21;18.57;;;14.67;;
5491;SDS011;2768;53.540;10.224;2024-03-08T07:00:16;21.40;;;14.73;;
5491;SDS011;2768;53.540;10.224;2024-03-08T07:06:15;22.43;;;15.47;;
5491;SDS011;2768;53.540;10.224;2024-03-08T07:12:10;21.83;;;15.80;;
5491;SDS011;2768;53.540;10.224;2024-03-08T07:18:05;22.97;;;16.40;;
5491;SDS011;2768;53.540;10.224;2024-03-08T07:24:02;21.00;;;15.30;;
5491;SDS011;2768;53.540;10.224;2024-03-08T07:30:10;20.67;;;15.57;;
5491;SDS011;2768;53.540;10.224;2024-03-08T07:36:05;22.77;;;15.93;;
5491;SDS011;2768;53.540;10.224;2024-03-08T07:42:00;21.70;;;16.37;;
5491;SDS011;2768;53.540;10.224;2024-03-08T07:47:53;22.10;;;16.30;;
5491;SDS011;2768;53.540;10.224;2024-03-08T07:53:49;24.00;;;17.93;;
5491;SDS011;2768;53.540;10.224;2024-03-08T07:59:44;22.70;;;17.53;;
5491;SDS011;2768;53.540;10.224;2024-03-08T08:05:37;21.77;;;16.30;;
5491;SDS011;2768;53.540;10.224;2024-03-08T08:11:30;22.70;;;16.73;;
5491;SDS011;2768;53.540;10.224;2024-03-08T08:17:25;23.60;;;16.40;;
5491;SDS011;2768;53.540;10.224;2024-03-08T08:23:19;25.77;;;18.70;;
5491;SDS011;2768;53.540;10.224;2024-03-08T08:29:12;21.17;;;16.60;;
5491;SDS011;2768;53.540;10.224;2024-03-08T08:35:08;23.70;;;18.03;;
5491;SDS011;2768;53.540;10.224;2024-03-08T08:41:04;23.63;;;18.17;;
5491;SDS011;2768;53.540;10.224;2024-03-08T08:46:58;24.60;;;17.50;;
5491;SDS011;2768;53.540;10.224;2024-03-08T08:53:04;21.90;;;16.43;;
5491;SDS011;2768;53.540;10.224;2024-03-08T08:59:00;26.57;;;17.57;;
5491;SDS011;2768;53.540;10.224;2024-03-08T09:04:55;22.77;;;17.30;;
5491;SDS011;2768;53.540;10.224;2024-03-08T09:10:50;24.20;;;17.37;;
5491;SDS011;2768;53.540;10.224;2024-03-08T09:16:44;20.27;;;15.80;;
5491;SDS011;2768;53.540;10.224;2024-03-08T09:22:39;21.03;;;16.70;;
5491;SDS011;2768;53.540;10.224;2024-03-08T09:28:34;21.27;;;15.77;;
5491;SDS011;2768;53.540;10.224;2024-03-08T09:34:27;21.27;;;16.37;;
5491;SDS011;2768;53.540;10.224;2024-03-08T09:40:29;20.30;;;15.80;;
5491;SDS011;2768;53.540;10.224;2024-03-08T09:46:24;22.50;;;16.70;;
5491;SDS011;2768;53.540;10.224;2024-03-08T09:52:18;20.00;;;16.03;;
5491;SDS011;2768;53.540;10.224;2024-03-08T09:58:13;20.07;;;15.83;;
5491;SDS011;2768;53.540;10.224;2024-03-08T10:04:21;19.70;;;15.57;;
5491;SDS011;2768;53.540;10.224;2024-03-08T10:10:15;20.53;;;16.47;;
5491;SDS011;2768;53.540;10.224;2024-03-08T10:16:09;21.77;;;16.60;;
5491;SDS011;2768;53.540;10.224;2024-03-08T10:22:05;20.07;;;14.73;;
5491;SDS011;2768;53.540;10.224;2024-03-08T10:27:58;18.50;;;15.17;;
5491;SDS011;2768;53.540;10.224;2024-03-08T10:33:51;19.40;;;15.27;;
5491;SDS011;2768;53.540;10.224;2024-03-08T10:39:49;18.23;;;13.80;;
5491;SDS011;2768;53.540;10.224;2024-03-08T10:45:52;21.63;;;16.07;;
5491;SDS011;2768;53.540;10.224;2024-03-08T10:51:56;18.03;;;14.97;;
5491;SDS011;2768;53.540;10.224;2024-03-08T10:57:53;18.23;;;14.50;;
5491;SDS011;2768;53.540;10.224;2024-03-08T11:03:47;18.03;;;14.97;;
5491;SDS011;2768;53.540;10.224;2024-03-08T11:09:48;20.13;;;13.70;;
5491;SDS011;2768;53.540;10.224;2024-03-08T11:15:43;17.80;;;15.10;;
5491;SDS011;2768;53.540;10.224;2024-03-08T11:21:36;15.93;;;13.10;;
5491;SDS011;2768;53.540;10.224;2024-03-08T11:27:31;16.83;;;14.33;;
5491;SDS011;2768;53.540;10.224;2024-03-08T11:33:27;16.53;;;13.33;;
5491;SDS011;2768;53.540;10.224;2024-03-08T11:39:22;17.00;;;13.80;;
5491;SDS011;2768;53.540;10.224;2024-03-08T11:45:44;16.20;;;14.40;;
5491;SDS011;2768;53.540;10.224;2024-03-08T11:51:39;17.83;;;14.80;;
5491;SDS011;2768;53.540;10.224;2024-03-08T11:57:32;17.97;;;15.03;;
5491;SDS011;2768;53.540;10.224;2024-03-08T12:03:26;18.90;;;13.93;;
5491;SDS011;2768;53.540;10.224;2024-03-08T12:09:22;15.30;;;12.40;;
5491;SDS011;2768;53.540;10.224;2024-03-08T12:15:15;15.53;;;13.07;;
5491;SDS011;2768;53.540;10.224;2024-03-08T12:21:10;15.37;;;12.70;;
5491;SDS011;2768;53.540;10.224;2024-03-08T12:27:18;15.80;;;13.30;;
5491;SDS011;2768;53.540;10.224;2024-03-08T12:33:12;15.53;;;13.53;;
5491;SDS011;2768;53.540;10.224;2024-03-08T12:39:05;16.00;;;13.10;;
5491;SDS011;2768;53.540;10.224;2024-03-08T12:45:06;15.97;;;13.67;;
5491;SDS011;2768;53.540;10.224;2024-03-08T12:51:02;13.33;;;11.80;;
5491;SDS011;2768;53.540;10.224;2024-03-08T12:56:55;13.93;;;11.67;;
5491;SDS011;2768;53.540;10.224;2024-03-08T13:02:52;13.53;;;11.40;;
5491;SDS011;2768;53.540;10.224;2024-03-08T13:08:45;14.33;;;12.17;;
5491;SDS011;2768;53.540;10.224;2024-03-08T13:14:40;14.13;;;12.10;;
5491;SDS011;2768;53.540;10.224;2024-03-08T13:20:35;14.00;;;12.50;;
5491;SDS011;2768;53.540;10.224;2024-03-08T13:26:38;13.90;;;11.20;;
5491;SDS011;2768;53.540;10.224;2024-03-08T13:32:35;13.60;;;10.97;;
5491;SDS011;2768;53.540;10.224;2024-03-08T13:38:32;12.93;;;11.07;;
5491;SDS011;2768;53.540;10.224;2024-03-08T13:44:25;16.10;;;10.90;;
5491;SDS011;2768;53.540;10.224;2024-03-08T13:50:19;16.90;;;13.00;;
5491;SDS011;2768;53.540;10.224;2024-03-08T13:56:15;14.97;;;11.27;;
5491;SDS011;2768;53.540;10.224;2024-03-08T14:02:09;13.83;;;10.80;;
5491;SDS011;2768;53.540;10.224;2024-03-08T14:08:05;13.80;;;12.40;;
5491;SDS011;2768;53.540;10.224;2024-03-08T14:14:00;13.87;;;11.63;;
5491;SDS011;2768;53.540;10.224;2024-03-08T14:19:55;13.07;;;10.40;;
5491;SDS011;2768;53.540;10.224;2024-03-08T14:25:48;12.33;;;11.03;;
5491;SDS011;2768;53.540;10.224;2024-03-08T14:31:44;12.37;;;11.07;;
5491;SDS011;2768;53.540;10.224;2024-03-08T14:37:38;12.67;;;11.30;;
5491;SDS011;2768;53.540;10.224;2024-03-08T14:43:32;12.00;;;10.30;;
5491;SDS011;2768;53.540;10.224;2024-03-08T14:49:27;13.00;;;9.53;;
5491;SDS011;2768;53.540;10.224;2024-03-08T14:55:21;13.07;;;11.30;;
5491;SDS011;2768;53.540;10.224;2024-03-08T15:01:15;13.50;;;10.50;;
5491;SDS011;2768;53.540;10.224;2024-03-08T15:07:14;12.80;;;10.50;;
5491;SDS011;2768;53.540;10.224;2024-03-08T15:13:09;11.03;;;9.53;;
5491;SDS011;2768;53.540;10.224;2024-03-08T15:19:13;11.77;;;9.17;;
5491;SDS011;2768;53.540;10.224;2024-03-08T15:25:09;12.97;;;10.70;;
5491;SDS011;2768;53.540;10.224;2024-03-08T15:31:09;12.13;;;10.37;;
5491;SDS011;2768;53.540;10.224;2024-03-08T15:37:04;13.37;;;11.40;;
5491;SDS011;2768;53.540;10.224;2024-03-08T15:43:00;11.87;;;10.63;;
5491;SDS011;2768;53.540;10.224;2024-03-08T15:48:54;13.30;;;11.60;;
5491;SDS011;2768;53.540;10.224;2024-03-08T15:54:48;12.73;;;10.83;;
5491;SDS011;2768;53.540;10.224;2024-03-08T16:00:43;12.93;;;10.87;;
5491;SDS011;2768;53.540;10.224;2024-03-08T16:06:40;13.30;;;11.00;;
5491;SDS011;2768;53.540;10.224;2024-03-08T16:12:36;12.57;;;10.73;;
5491;SDS011;2768;53.540;10.224;2024-03-08T16:18:32;14.00;;;11.10;;
5491;SDS011;2768;53.540;10.224;2024-03-08T16:24:29;12.50;;;10.53;;
5491;SDS011;2768;53.540;10.224;2024-03-08T16:30:24;16.10;;;11.87;;
5491;SDS011;2768;53.540;10.224;2024-03-08T16:36:19;15.20;;;11.73;;
5491;SDS011;2768;53.540;10.224;2024-03-08T16:42:13;15.20;;;12.43;;
5491;SDS011;2768;53.540;10.224;2024-03-08T16:48:07;14.97;;;12.13;;
5491;SDS011;2768;53.540;10.224;2024-03-08T16:54:03;14.57;;;11.50;;
5491;SDS011;2768;53.540;10.224;2024-03-08T16:59:56;13.33;;;11.63;;
5491;SDS011;2768;53.540;10.224;2024-03-08T17:05:51;14.60;;;13.00;;
5491;SDS011;2768;53.540;10.224;2024-03-08T17:11:48;17.30;;;13.90;;
5491;SDS011;2768;53.540;10.224;2024-03-08T17:17:43;15.70;;;12.43;;
5491;SDS011;2768;53.540;10.224;2024-03-08T17:23:39;17.00;;;13.90;;
5491;SDS011;2768;53.540;10.224;2024-03-08T17:29:34;18.47;;;14.00;;
5491;SDS011;2768;53.540;10.224;2024-03-08T17:35:29;18.90;;;13.13;;
5491;SDS011;2768;53.540;10.224;2024-03-08T17:41:26;16.43;;;13.73;;
5491;SDS011;2768;53.540;10.224;2024-03-08T17:47:21;14.83;;;13.20;;
5491;SDS011;2768;53.540;10.224;2024-03-08T17:53:16;16.80;;;12.90;;
5491;SDS011;2768;53.540;10.224;2024-03-08T17:59:11;16.20;;;12.50;;
5491;SDS011;2768;53.540;10.224;2024-03-08T18:05:07;16.63;;;13.10;;
5491;SDS011;2768;53.540;10.224;2024-03-08T18:11:02;15.97;;;12.30;;
5491;SDS011;2768;53.540;10.224;2024-03-08T18:16:56;14.80;;;12.57;;
5491;SDS011;2768;53.540;10.224;2024-03-08T18:22:51;13.87;;;11.17;;
5491;SDS011;2768;53.540;10.224;2024-03-08T18:28:45;16.23;;;12.07;;
5491;SDS011;2768;53.540;10.224;2024-03-08T18:34:40;16.77;;;11.77;;
5491;SDS011;2768;53.540;10.224;2024-03-08T18:40:36;16.00;;;11.00;;
5491;SDS011;2768;53.540;10.224;2024-03-08T18:46:37;14.80;;;11.97;;
5491;SDS011;2768;53.540;10.224;2024-03-08T18:52:33;15.47;;;12.30;;
5491;SDS011;2768;53.540;10.224;2024-03-08T18:58:29;15.33;;;12.70;;
5491;SDS011;2768;53.540;10.224;2024-03-08T19:04:36;13.57;;;12.10;;
5491;SDS011;2768;53.540;10.224;2024-03-08T19:10:31;14.70;;;11.97;;
5491;SDS011;2768;53.540;10.224;2024-03-08T19:16:27;15.80;;;12.47;;
5491;SDS011;2768;53.540;10.224;2024-03-08T19:22:20;14.43;;;11.90;;
5491;SDS011;2768;53.540;10.224;2024-03-08T19:28:15;16.20;;;12.80;;
5491;SDS011;2768;53.540;10.224;2024-03-08T19:34:11;15.93;;;13.00;;
5491;SDS011;2768;53.540;10.224;2024-03-08T19:40:07;15.20;;;11.97;;
5491;SDS011;2768;53.540;10.224;2024-03-08T19:46:06;15.07;;;12.53;;
5491;SDS011;2768;53.540;10.224;2024-03-08T19:52:04;16.07;;;12.90;;
5491;SDS011;2768;53.540;10.224;2024-03-08T19:57:58;16.00;;;12.93;;
5491;SDS011;2768;53.540;10.224;2024-03-08T20:03:52;15.70;;;12.47;;
5491;SDS011;2768;53.540;10.224;2024-03-08T20:09:48;15.30;;;12.13;;
5491;SDS011;2768;53.540;10.224;2024-03-08T20:15:41;17.93;;;13.50;;
5491;SDS011;2768;53.540;10.224;2024-03-08T20:21:37;16.70;;;12.40;;
5491;SDS011;2768;53.540;10.224;2024-03-08T20:27:32;14.90;;;11.70;;
5491;SDS011;2768;53.540;10.224;2024-03-08T20:33:29;15.17;;;12.53;;
5491;SDS011;2768;53.540;10.224;2024-03-08T20:39:23;17.77;;;13.70;;
5491;SDS011;2768;53.540;10.224;2024-03-08T20:45:19;15.37;;;12.50;;
5491;SDS011;2768;53.540;10.224;2024-03-08T20:51:17;16.60;;;13.23;;
5491;SDS011;2768;53.540;10.224;2024-03-08T20:57:11;19.27;;;13.37;;
5491;SDS011;2768;53.540;10.224;2024-03-08T21:03:06;16.47;;;13.27;;
5491;SDS011;2768;53.540;10.224;2024-03-08T21:09:04;17.70;;;13.20;;
5491;SDS011;2768;53.540;10.224;2024-03-08T21:15:03;17.90;;;13.83;;
5491;SDS011;2768;53.540;10.224;2024-03-08T21:21:01;18.27;;;13.57;;
5491;SDS011;2768;53.540;10.224;2024-03-08T21:26:55;16.97;;;12.93;;
5491;SDS011;2768;53.540;10.224;2024-03-08T21:32:48;16.20;;;13.37;;
5491;SDS011;2768;53.540;10.224;2024-03-08T21:38:44;15.23;;;12.67;;
5491;SDS011;2768;53.540;10.224;2024-03-08T21:44:37;16.83;;;12.50;;
5491;SDS011;2768;53.540;10.224;2024-03-08T21:50:30;17.20;;;13.47;;
5491;SDS011;2768;53.540;10.224;2024-03-08T21:56:26;16.90;;;13.00;;
5491;SDS011;2768;53.540;10.224;2024-03-08T22:02:19;16.70;;;12.17;;
5491;SDS011;2768;53.540;10.224;2024-03-08T22:08:13;17.83;;;13.93;;
5491;SDS011;2768;53.540;10.224;2024-03-08T22:14:07;13.93;;;11.20;;
5491;SDS011;2768;53.540;10.224;2024-03-08T22:20:01;16.40;;;13.33;;
5491;SDS011;2768;53.540;10.224;2024-03-08T22:26:02;16.70;;;12.73;;
5491;SDS011;2768;53.540;10.224;2024-03-08T22:32:01;16.33;;;12.40;;
5491;SDS011;2768;53.540;10.224;2024-03-08T22:37:55;15.87;;;13.57;;
5491;SDS011;2768;53.540;10.224;2024-03-08T22:43:48;16.80;;;13.10;;
5491;SDS011;2768;53.540;10.224;2024-03-08T22:49:44;17.03;;;13.13;;
5491;SDS011;2768;53.540;10.224;2024-03-08T22:55:37;18.37;;;13.43;;
5491;SDS011;2768;53.540;10.224;2024-03-08T23:01:30;17.27;;;12.80;;
5491;SDS011;2768;53.540;10.224;2024-03-08T23:07:27;17.93;;;13.67;;
5491;SDS011;2768;53.540;10.224;2024-03-08T23:13:22;15.67;;;13.07;;
5491;SDS011;2768;53.540;10.224;2024-03-08T23:19:18;16.43;;;13.03;;
5491;SDS011;2768;53.540;10.224;2024-03-08T23:25:13;21.17;;;14.70;;
5491;SDS011;2768;53.540;10.224;2024-03-08T23:31:08;17.53;;;12.83;;
5491;SDS011;2768;53.540;10.224;2024-03-08T23:37:01;15.57;;;12.87;;
5491;SDS011;2768;53.540;10.224;2024-03-08T23:42:58;17.60;;;13.50;;
5491;SDS011;2768;53.540;10.224;2024-03-08T23:48:51;17.33;;;13.23;;
5491;SDS011;2768;53.540;10.224;2024-03-08T23:54:45;18.20;;;13.20;;
